Accueil
METAR-TAF:

METAR-TAF

Aéroports :

Aéroport international Bauerfield

Port-Vila, Éfaté, Vanuatu

latitude: 17-42S, longitude: 168-18E, altitude: 20 m

Observation

Le bulletin a été fait il y a 1 heure et 11 minutes, à 21:00 UTC
Vent 5 kt de est
Température 25°C
Humidité 94%
Pression 1012 hPa
Visibilité 10 km ou plus
Nuages épars à une hauteur de 2000 ft
Nuages fragmentés à une hauteur de 10000 ft

METAR: NVVV 232100Z 08005KT 9999 SCT020 BKN100 25/24 Q1012 RMK NIL

Heure: 09:11 (22:11 UTC)

Prévision

Le bulletin a été fait il y a 6 heures et 11 minutes, à 16:00 UTC
Prévision valable du 23 à 18 UTC au 24 à 18 UTC
Vent 5 kt de est
Visibilité: 7000 m
Nuages épars à une hauteur de 2000 ft
Nuages fragmentés à une hauteur de 4000 ft
Quelques nuages à une hauteur de 1000 ft
Nuages fragmentés à une hauteur de 1800 ft
averses de pluie

TAF: NVVV 231600Z 2318/2418 09005KT 9999 SCT020 BKN040 INTER 2318/2324 7000 SHRA FEW010 BKN018

Observations et prévisions météorologiques de plus de 4000 aéroports (messages METAR et TAF).

Les stations disponibles sont représentées par des disques jaunes et rouges sur la carte.

Passer la souris dessus pour voir le nom de la station.

Cliquer dessus pour voir les observations et prévisions météorologiques.

Pour changer de carte: cliquez sur les boutons verts avec une croix noire pour zoomer, sur le bouton vert avec un tiret pour effectuer un zoom arrière, ou sur les flèches vertes pour les cartes adjacentes.


METAR-TAF: